Time;durP1;ratioP1;P1;durP2;ratioP2;P2;SDS_P1;SDS_P2;PMS_P1;PMS_P2;Temp;Humidity;BMP_temperature;BMP_pressure;BME280_temperature;BME280_humidity;BME280_pressure;Samples;Min_cycle;Max_cycle;Signal;HPM_P1;HPM_P2
2023/08/05 00:01:03;;;;;;;1.83;1.73;;;;;14.90;95943.00;;;;5035479;28;20204;-63
2023/08/05 00:03:30;;;;;;;0.73;0.73;;;;;14.80;95952.00;;;;5034560;28;20198;-61
2023/08/05 00:05:58;;;;;;;1.10;1.10;;;;;14.80;95959.00;;;;5034238;28;20287;-63
2023/08/05 00:08:26;;;;;;;0.70;0.70;;;;;14.80;95950.00;;;;5034653;28;20593;-63
2023/08/05 00:10:54;;;;;;;0.50;0.50;;;;;14.80;95963.00;;;;5033078;28;20200;-61
2023/08/05 00:13:21;;;;;;;1.00;1.00;;;;;14.80;95954.00;;;;5034277;28;20200;-61
2023/08/05 00:15:49;;;;;;;0.93;0.93;;;;;14.90;95956.00;;;;5034173;28;20220;-61
2023/08/05 00:18:16;;;;;;;1.20;1.20;;;;;14.90;95960.00;;;;5034479;28;20597;-63
2023/08/05 00:20:44;;;;;;;1.00;1.00;;;;;14.90;95955.00;;;;5034378;28;20552;-62
2023/08/05 00:23:11;;;;;;;2.70;1.30;;;;;14.90;95954.00;;;;5033900;28;20620;-62
2023/08/05 00:25:40;;;;;;;1.23;1.20;;;;;14.90;95951.00;;;;5032555;28;20219;-62
2023/08/05 00:28:07;;;;;;;3.90;1.03;;;;;14.90;95954.00;;;;5034433;28;20195;-62
2023/08/05 00:30:35;;;;;;;1.30;1.30;;;;;14.80;95959.00;;;;5033774;28;20197;-62
2023/08/05 00:33:02;;;;;;;0.93;0.93;;;;;14.80;95953.00;;;;5033734;28;20197;-62
2023/08/05 00:35:29;;;;;;;3.43;1.43;;;;;14.80;95957.00;;;;5033800;28;20213;-62
2023/08/05 00:37:57;;;;;;;1.20;1.20;;;;;14.80;95962.00;;;;5033736;28;20288;-63
2023/08/05 00:40:24;;;;;;;0.80;0.80;;;;;14.80;95957.00;;;;5033667;28;20216;-61
2023/08/05 00:42:53;;;;;;;1.53;1.53;;;;;14.70;95956.00;;;;5034221;28;20196;-61
2023/08/05 00:45:20;;;;;;;0.93;0.93;;;;;14.80;95959.00;;;;5033603;28;20585;-61
2023/08/05 00:47:48;;;;;;;0.97;0.97;;;;;14.80;95953.00;;;;5033501;28;20220;-62
2023/08/05 00:50:15;;;;;;;0.90;0.90;;;;;14.80;95952.00;;;;5033824;28;20195;-62
2023/08/05 00:52:44;;;;;;;0.80;0.80;;;;;14.80;95947.00;;;;5033799;28;20651;-62
2023/08/05 00:55:11;;;;;;;0.93;0.93;;;;;14.90;95951.00;;;;5033721;28;20244;-62
2023/08/05 00:57:39;;;;;;;0.73;0.73;;;;;14.90;95947.00;;;;5033073;28;20721;-61
2023/08/05 01:00:09;;;;;;;0.93;0.93;;;;;14.90;95944.00;;;;5032575;28;20197;-62
2023/08/05 01:02:36;;;;;;;0.70;0.70;;;;;14.80;95930.00;;;;5032873;28;20255;-62
2023/08/05 01:05:04;;;;;;;2.27;1.27;;;;;14.70;95923.00;;;;5032456;28;20268;-62
2023/08/05 01:07:33;;;;;;;1.33;1.23;;;;;14.80;95923.00;;;;5032505;28;20224;-62
2023/08/05 01:10:01;;;;;;;0.70;0.70;;;;;14.80;95912.00;;;;5032653;28;20621;-61
2023/08/05 01:12:28;;;;;;;0.60;0.60;;;;;14.80;95919.00;;;;5032746;28;20259;-61
2023/08/05 01:14:55;;;;;;;0.90;0.90;;;;;14.70;95919.00;;;;5032709;28;20208;-61
2023/08/05 01:17:24;;;;;;;1.53;1.43;;;;;14.60;95918.00;;;;5033477;28;20541;-61
2023/08/05 01:19:52;;;;;;;0.87;0.87;;;;;14.60;95908.00;;;;5032829;28;20714;-62
2023/08/05 01:22:27;;;;;;;2.60;1.23;;;;;14.50;95918.00;;;;5032416;28;20204;-62
2023/08/05 01:25:04;;;;;;;0.70;0.70;;;;;14.50;95902.00;;;;5032431;28;20283;-62
2023/08/05 01:27:34;;;;;;;1.03;1.03;;;;;14.60;95914.00;;;;5032389;28;20215;-62
2023/08/05 01:30:01;;;;;;;0.90;0.90;;;;;14.50;95918.00;;;;5032622;28;20193;-62
2023/08/05 01:32:29;;;;;;;2.67;1.37;;;;;14.60;95925.00;;;;5032663;28;20241;-62
2023/08/05 01:34:57;;;;;;;0.80;0.80;;;;;14.70;95920.00;;;;5032258;28;20193;-62
2023/08/05 01:37:25;;;;;;;1.27;1.27;;;;;14.50;95925.00;;;;5032222;28;20314;-62
2023/08/05 01:39:52;;;;;;;0.77;0.77;;;;;14.40;95919.00;;;;5032072;28;20193;-62
2023/08/05 01:42:19;;;;;;;1.20;1.20;;;;;14.30;95921.00;;;;5032121;28;20193;-61
2023/08/05 01:44:48;;;;;;;0.60;0.60;;;;;14.30;95920.00;;;;5032164;28;20204;-61
2023/08/05 01:47:15;;;;;;;0.93;0.93;;;;;14.40;95924.00;;;;5032106;28;20560;-62
2023/08/05 01:49:43;;;;;;;0.73;0.73;;;;;14.40;95926.00;;;;5032013;28;20196;-62
2023/08/05 01:52:10;;;;;;;0.90;0.90;;;;;14.30;95926.00;;;;5032105;28;20251;-62
2023/08/05 01:54:37;;;;;;;1.00;1.00;;;;;14.20;95916.00;;;;5032268;28;20204;-62
2023/08/05 01:57:05;;;;;;;3.60;1.00;;;;;14.20;95918.00;;;;4995324;28;1050036;-62
2023/08/05 01:59:33;;;;;;;1.63;1.53;;;;;14.10;95915.00;;;;5033228;28;20177;-61
2023/08/05 02:02:01;;;;;;;0.80;0.80;;;;;14.10;95921.00;;;;5033203;28;20196;-62
2023/08/05 02:04:29;;;;;;;1.20;1.13;;;;;14.00;95923.00;;;;5034711;28;20247;-61
2023/08/05 02:06:55;;;;;;;0.93;0.93;;;;;14.00;95925.00;;;;5036596;28;20208;-62
2023/08/05 02:09:22;;;;;;;1.37;1.33;;;;;14.00;95918.00;;;;5036981;28;20307;-62
2023/08/05 02:11:50;;;;;;;0.80;0.80;;;;;14.00;95918.00;;;;5036571;28;20683;-61
2023/08/05 02:14:17;;;;;;;1.00;1.00;;;;;14.00;95918.00;;;;5036624;28;20193;-61
2023/08/05 02:16:45;;;;;;;0.80;0.80;;;;;14.00;95915.00;;;;5034937;28;20314;-61
2023/08/05 02:19:13;;;;;;;0.97;0.70;;;;;14.00;95912.00;;;;5036277;28;20247;-62
2023/08/05 02:21:41;;;;;;;0.93;0.93;;;;;14.00;95901.00;;;;5036352;28;20267;-61
2023/08/05 02:24:09;;;;;;;0.90;0.90;;;;;13.90;95906.00;;;;5036259;28;20204;-62
2023/08/05 02:26:37;;;;;;;1.07;0.97;;;;;13.90;95910.00;;;;5036180;28;20212;-62
2023/08/05 02:29:04;;;;;;;1.60;1.50;;;;;13.90;95899.00;;;;5036419;28;20216;-61
2023/08/05 02:31:31;;;;;;;1.03;0.90;;;;;13.90;95898.00;;;;5036128;28;20204;-61
2023/08/05 02:33:59;;;;;;;1.47;1.37;;;;;13.90;95894.00;;;;5036054;28;20197;-61
2023/08/05 02:36:28;;;;;;;1.40;1.40;;;;;13.90;95900.00;;;;5035833;28;20227;-62
2023/08/05 02:38:55;;;;;;;0.93;0.93;;;;;13.90;95891.00;;;;5035897;28;20220;-61
2023/08/05 02:41:22;;;;;;;1.00;1.00;;;;;13.80;95885.00;;;;5036037;28;20197;-61
2023/08/05 02:43:50;;;;;;;0.80;0.80;;;;;13.80;95882.00;;;;5035990;28;20189;-61
2023/08/05 02:46:17;;;;;;;9.33;1.00;;;;;13.80;95885.00;;;;5035861;28;20205;-62
2023/08/05 02:48:44;;;;;;;0.80;0.80;;;;;13.80;95894.00;;;;5036098;28;20185;-61
2023/08/05 02:51:12;;;;;;;10.83;1.37;;;;;13.80;95879.00;;;;5035737;28;20607;-61
2023/08/05 02:53:40;;;;;;;1.23;1.23;;;;;13.80;95886.00;;;;5035847;28;20202;-62
2023/08/05 02:56:08;;;;;;;1.33;1.27;;;;;13.80;95878.00;;;;5035705;28;20225;-61
2023/08/05 02:58:35;;;;;;;1.27;1.17;;;;;13.90;95880.00;;;;5035580;28;20212;-61
2023/08/05 03:01:07;;;;;;;0.83;0.83;;;;;13.80;95889.00;;;;5035782;28;20277;-61
2023/08/05 03:03:34;;;;;;;0.80;0.80;;;;;13.50;95897.00;;;;5035783;28;20200;-61
2023/08/05 03:06:02;;;;;;;1.00;1.00;;;;;13.70;95885.00;;;;5034041;28;20217;-61
2023/08/05 03:08:29;;;;;;;1.63;1.53;;;;;13.60;95878.00;;;;5035365;28;20197;-62
2023/08/05 03:11:02;;;;;;;0.87;0.87;;;;;13.70;95873.00;;;;5035855;28;20199;-61
2023/08/05 03:13:29;;;;;;;7.53;1.53;;;;;13.70;95872.00;;;;5035388;28;20197;-62
2023/08/05 03:15:57;;;;;;;0.87;0.87;;;;;13.70;95884.00;;;;5033893;28;20220;-61
2023/08/05 03:18:24;;;;;;;0.63;0.63;;;;;13.60;95886.00;;;;5035169;28;20195;-61
2023/08/05 03:20:52;;;;;;;1.03;1.03;;;;;13.60;95891.00;;;;5035179;28;20204;-61
2023/08/05 03:23:19;;;;;;;1.10;1.10;;;;;13.60;95901.00;;;;5035227;28;20558;-61
2023/08/05 03:25:46;;;;;;;1.60;1.50;;;;;13.60;95901.00;;;;5035287;28;20200;-61
2023/08/05 03:28:15;;;;;;;0.97;0.97;;;;;13.60;95903.00;;;;5033959;28;20200;-61
2023/08/05 03:30:42;;;;;;;1.17;1.17;;;;;13.60;95904.00;;;;5035132;28;20199;-61
2023/08/05 03:33:10;;;;;;;0.80;0.80;;;;;13.50;95908.00;;;;5035019;28;20189;-61
2023/08/05 03:35:37;;;;;;;0.90;0.90;;;;;13.50;95907.00;;;;5034709;28;20196;-61
2023/08/05 03:38:04;;;;;;;1.07;1.07;;;;;13.50;95906.00;;;;5033824;28;20229;-62
2023/08/05 03:40:32;;;;;;;1.00;1.00;;;;;13.50;95907.00;;;;5035182;28;20192;-61
2023/08/05 03:43:00;;;;;;;0.70;0.70;;;;;13.40;95913.00;;;;5035126;28;20204;-61
2023/08/05 03:45:28;;;;;;;1.27;1.27;;;;;13.50;95916.00;;;;5034770;28;20205;-61
2023/08/05 03:47:56;;;;;;;0.77;0.77;;;;;13.40;95923.00;;;;5034872;28;20197;-61
2023/08/05 03:50:28;;;;;;;1.40;1.40;;;;;13.30;95924.00;;;;5034608;28;20595;-61
2023/08/05 03:52:57;;;;;;;1.50;1.40;;;;;13.30;95928.00;;;;5034901;28;20177;-62
2023/08/05 03:55:25;;;;;;;0.97;0.97;;;;;13.30;95939.00;;;;5034481;28;20192;-61
2023/08/05 03:57:52;;;;;;;1.60;1.50;;;;;13.20;95949.00;;;;5034214;28;20229;-62
2023/08/05 04:00:19;;;;;;;2.53;1.63;;;;;13.20;95939.00;;;;5034449;28;20246;-61
2023/08/05 04:02:48;;;;;;;0.97;0.97;;;;;13.20;95939.00;;;;5034303;28;20203;-61
2023/08/05 04:05:15;;;;;;;1.13;1.13;;;;;13.30;95946.00;;;;5034563;28;20196;-61
2023/08/05 04:07:43;;;;;;;1.23;1.13;;;;;13.40;95953.00;;;;5034733;28;20216;-61
2023/08/05 04:10:12;;;;;;;1.07;1.07;;;;;13.30;95940.00;;;;5034128;28;20683;-62
2023/08/05 04:12:39;;;;;;;3.17;2.33;;;;;13.30;95943.00;;;;5034354;28;20227;-62
2023/08/05 04:15:08;;;;;;;2.00;1.43;;;;;13.30;95941.00;;;;5034190;28;20250;-61
2023/08/05 04:17:35;;;;;;;2.43;1.47;;;;;13.30;95941.00;;;;5033955;28;20242;-62
2023/08/05 04:20:05;;;;;;;1.33;1.23;;;;;13.30;95942.00;;;;5033957;28;20193;-62
2023/08/05 04:22:34;;;;;;;1.17;1.13;;;;;13.30;95933.00;;;;5034370;28;20200;-62
2023/08/05 04:25:02;;;;;;;1.00;1.00;;;;;13.30;95937.00;;;;5032731;28;20196;-61
2023/08/05 04:27:29;;;;;;;0.80;0.80;;;;;13.40;95944.00;;;;5033534;28;20216;-61
2023/08/05 04:29:58;;;;;;;1.33;1.33;;;;;13.40;95931.00;;;;5034064;28;20196;-61
2023/08/05 04:32:25;;;;;;;0.80;0.80;;;;;13.40;95930.00;;;;5034119;28;20707;-62
2023/08/05 04:34:52;;;;;;;1.10;1.10;;;;;13.40;95927.00;;;;5033901;28;20692;-62
2023/08/05 04:37:22;;;;;;;1.30;1.30;;;;;13.40;95931.00;;;;5033537;28;20221;-61
2023/08/05 04:39:50;;;;;;;1.10;1.10;;;;;13.40;95933.00;;;;5034142;28;20201;-62
2023/08/05 04:42:18;;;;;;;1.03;1.03;;;;;13.40;95935.00;;;;5033613;28;20651;-61
2023/08/05 04:44:45;;;;;;;1.47;1.37;;;;;13.50;95930.00;;;;5033598;28;20266;-61
2023/08/05 04:47:13;;;;;;;0.83;0.83;;;;;13.60;95929.00;;;;5033378;28;20234;-62
2023/08/05 04:49:45;;;;;;;0.70;0.70;;;;;13.50;95935.00;;;;5033642;28;20208;-61
2023/08/05 04:52:14;;;;;;;0.80;0.80;;;;;13.50;95936.00;;;;5033770;28;20198;-61
2023/08/05 04:54:44;;;;;;;1.07;1.07;;;;;13.50;95950.00;;;;5033377;28;20653;-61
2023/08/05 04:57:12;;;;;;;0.87;0.87;;;;;13.60;95939.00;;;;5033345;28;20228;-61
2023/08/05 04:59:39;;;;;;;5.60;1.20;;;;;13.60;95957.00;;;;5034041;28;20208;-62
2023/08/05 05:02:07;;;;;;;0.97;0.97;;;;;13.50;95958.00;;;;5033493;28;20247;-61
2023/08/05 05:04:34;;;;;;;1.23;1.23;;;;;13.60;95965.00;;;;5033702;28;20188;-61
2023/08/05 05:07:01;;;;;;;0.90;0.90;;;;;13.50;95965.00;;;;5033124;28;20219;-61
2023/08/05 05:09:29;;;;;;;0.70;0.70;;;;;13.40;95964.00;;;;5033169;28;20200;-61
2023/08/05 05:12:00;;;;;;;0.80;0.80;;;;;13.50;95972.00;;;;5033105;28;20200;-61
2023/08/05 05:14:27;;;;;;;1.10;1.10;;;;;13.60;95978.00;;;;5033588;28;20181;-61
2023/08/05 05:16:54;;;;;;;1.40;1.30;;;;;13.60;95983.00;;;;5033438;28;20243;-61
2023/08/05 05:19:22;;;;;;;1.73;1.63;;;;;13.80;95975.00;;;;5033600;28;20548;-61
2023/08/05 05:21:49;;;;;;;1.03;1.03;;;;;13.80;95975.00;;;;5033338;28;20215;-62
2023/08/05 05:24:16;;;;;;;1.20;1.20;;;;;13.70;95966.00;;;;5033232;28;20655;-62
2023/08/05 05:26:44;;;;;;;1.13;1.00;;;;;13.80;95970.00;;;;5033213;28;20525;-61
2023/08/05 05:29:12;;;;;;;1.00;1.00;;;;;13.90;95958.00;;;;5033080;28;20664;-62
2023/08/05 05:31:40;;;;;;;1.60;1.50;;;;;13.90;95958.00;;;;5031832;28;20197;-62
2023/08/05 05:34:07;;;;;;;0.80;0.80;;;;;13.90;95957.00;;;;5033397;28;20196;-61
2023/08/05 05:36:34;;;;;;;1.47;1.47;;;;;14.00;95958.00;;;;5033010;28;20221;-62
2023/08/05 05:39:02;;;;;;;0.90;0.90;;;;;14.10;95960.00;;;;5034398;28;20203;-62
2023/08/05 05:41:30;;;;;;;1.70;0.90;;;;;14.10;95941.00;;;;5037073;28;20200;-62
2023/08/05 05:43:58;;;;;;;1.23;1.13;;;;;14.20;95933.00;;;;5037321;28;20212;-61
2023/08/05 05:46:27;;;;;;;1.00;1.00;;;;;14.30;95941.00;;;;5036935;28;20220;-61
2023/08/05 05:48:54;;;;;;;6.83;1.90;;;;;14.40;95948.00;;;;5037130;28;20231;-61
2023/08/05 05:51:21;;;;;;;2.47;1.37;;;;;14.40;95941.00;;;;5036758;28;20192;-61
2023/08/05 05:53:49;;;;;;;1.50;1.47;;;;;14.40;95942.00;;;;5036644;28;20199;-61
2023/08/05 05:56:16;;;;;;;0.70;0.70;;;;;14.30;95945.00;;;;5036743;28;20212;-61
2023/08/05 05:58:43;;;;;;;1.00;1.00;;;;;14.50;95949.00;;;;5035254;28;20664;-61
2023/08/05 06:01:11;;;;;;;2.10;1.90;;;;;14.60;95940.00;;;;5036794;28;20533;-61
2023/08/05 06:03:41;;;;;;;0.63;0.63;;;;;14.70;95942.00;;;;5037198;28;20208;-61
2023/08/05 06:06:09;;;;;;;1.70;1.10;;;;;14.80;95944.00;;;;5036539;28;20574;-61
2023/08/05 06:08:36;;;;;;;1.47;1.37;;;;;14.90;95948.00;;;;5036519;28;20275;-61
2023/08/05 06:11:04;;;;;;;1.20;1.20;;;;;14.90;95949.00;;;;5036952;28;20242;-61
2023/08/05 06:13:32;;;;;;;1.17;1.17;;;;;15.00;95946.00;;;;5036486;28;20197;-61
2023/08/05 06:15:59;;;;;;;1.33;1.27;;;;;15.00;95949.00;;;;5036328;28;20215;-61
2023/08/05 06:18:26;;;;;;;1.00;1.00;;;;;15.00;95946.00;;;;5036183;28;20239;-61
2023/08/05 06:20:55;;;;;;;0.80;0.80;;;;;15.30;95945.00;;;;5036404;28;20192;-61
2023/08/05 06:23:22;;;;;;;1.37;1.37;;;;;15.20;95937.00;;;;5036047;28;20193;-61
2023/08/05 06:25:50;;;;;;;1.10;1.10;;;;;14.90;95940.00;;;;5036074;28;20213;-61
2023/08/05 06:28:17;;;;;;;1.27;1.27;;;;;14.90;95937.00;;;;5036060;28;20221;-61
2023/08/05 06:30:45;;;;;;;1.30;1.23;;;;;14.80;95940.00;;;;5035989;28;20193;-61
2023/08/05 06:33:13;;;;;;;0.80;0.80;;;;;14.80;95939.00;;;;5036146;28;20193;-61
2023/08/05 06:35:40;;;;;;;1.50;1.40;;;;;14.70;95934.00;;;;5035818;28;20215;-61
2023/08/05 06:38:09;;;;;;;1.23;1.23;;;;;14.80;95930.00;;;;5036344;28;20226;-61
2023/08/05 06:40:36;;;;;;;1.53;1.43;;;;;15.00;95923.00;;;;5036342;28;20199;-61
2023/08/05 06:43:04;;;;;;;0.97;0.97;;;;;15.00;95906.00;;;;5035877;28;20200;-61
2023/08/05 06:45:31;;;;;;;1.80;1.40;;;;;14.90;95906.00;;;;5035770;28;20193;-61
2023/08/05 06:47:59;;;;;;;1.00;1.00;;;;;15.00;95919.00;;;;5035863;28;20551;-61
2023/08/05 06:50:26;;;;;;;0.83;0.83;;;;;15.10;95916.00;;;;5035448;28;20200;-61
2023/08/05 06:52:53;;;;;;;1.10;1.10;;;;;15.00;95903.00;;;;5035747;28;20662;-62
2023/08/05 06:55:24;;;;;;;0.90;0.90;;;;;15.30;95902.00;;;;5035665;28;20193;-62
2023/08/05 06:57:51;;;;;;;1.13;1.13;;;;;15.40;95908.00;;;;5035856;28;20249;-61
2023/08/05 07:00:19;;;;;;;1.37;1.33;;;;;15.30;95905.00;;;;5035539;28;20554;-61
2023/08/05 07:02:46;;;;;;;1.10;1.10;;;;;15.40;95916.00;;;;5035591;28;20204;-61
2023/08/05 07:05:13;;;;;;;1.10;1.10;;;;;15.30;95913.00;;;;5035460;28;20196;-61
2023/08/05 07:07:41;;;;;;;12.47;2.13;;;;;15.30;95906.00;;;;5034143;28;20271;-62
2023/08/05 07:10:11;;;;;;;1.00;1.00;;;;;15.60;95903.00;;;;5035460;28;20203;-61
2023/08/05 07:12:40;;;;;;;2.00;1.83;;;;;15.70;95905.00;;;;5035381;28;20223;-61
2023/08/05 07:15:08;;;;;;;0.87;0.87;;;;;15.60;95903.00;;;;5035512;28;20216;-61
2023/08/05 07:17:35;;;;;;;2.77;1.67;;;;;15.60;95904.00;;;;5035430;28;20319;-61
2023/08/05 07:20:04;;;;;;;1.60;1.50;;;;;15.90;95908.00;;;;5033814;28;20196;-61
2023/08/05 07:22:32;;;;;;;2.00;1.50;;;;;16.10;95909.00;;;;5035178;28;20247;-62
2023/08/05 07:24:59;;;;;;;1.60;1.50;;;;;16.20;95920.00;;;;5035102;28;20247;-62
2023/08/05 07:27:28;;;;;;;1.20;1.20;;;;;16.20;95916.00;;;;5034989;28;20240;-62
2023/08/05 07:29:57;;;;;;;1.23;1.23;;;;;16.40;95916.00;;;;5035258;28;20192;-61
2023/08/05 07:32:24;;;;;;;8.33;2.00;;;;;16.70;95913.00;;;;5034164;28;20201;-66
2023/08/05 07:34:55;;;;;;;1.10;1.10;;;;;16.80;95913.00;;;;5035032;28;20189;-64
2023/08/05 07:37:24;;;;;;;1.40;1.30;;;;;17.00;95916.00;;;;5035172;28;20312;-57
2023/08/05 07:39:52;;;;;;;0.83;0.83;;;;;16.70;95919.00;;;;5035110;28;20267;-57
2023/08/05 07:42:22;;;;;;;1.33;1.27;;;;;16.40;95912.00;;;;5035124;28;20197;-57
2023/08/05 07:44:52;;;;;;;1.43;1.43;;;;;16.40;95903.00;;;;5034893;28;20600;-57
2023/08/05 07:47:21;;;;;;;1.60;1.27;;;;;16.50;95906.00;;;;5034777;28;20223;-57
2023/08/05 07:49:49;;;;;;;0.90;0.90;;;;;16.70;95903.00;;;;5034857;28;20189;-57
2023/08/05 07:52:16;;;;;;;5.93;1.23;;;;;16.80;95894.00;;;;5034768;28;20204;-57
2023/08/05 07:54:43;;;;;;;1.03;1.03;;;;;16.70;95902.00;;;;5035254;28;20193;-59
2023/08/05 07:57:11;;;;;;;0.97;0.97;;;;;16.90;95901.00;;;;5034863;28;20559;-57
2023/08/05 07:59:38;;;;;;;1.40;1.30;;;;;17.00;95899.00;;;;5035303;28;20559;-57
2023/08/05 08:02:10;;;;;;;1.17;1.10;;;;;17.00;95899.00;;;;5034541;28;20212;-57
2023/08/05 08:04:38;;;;;;;1.30;1.20;;;;;17.20;95887.00;;;;5033109;28;20247;-57
2023/08/05 08:07:08;;;;;;;0.90;0.90;;;;;17.40;95892.00;;;;5034500;28;20212;-57
2023/08/05 08:09:36;;;;;;;1.27;1.27;;;;;17.80;95895.00;;;;5034303;28;20683;-57
2023/08/05 08:12:04;;;;;;;3.77;3.47;;;;;17.70;95895.00;;;;5034509;28;20204;-57
2023/08/05 08:14:31;;;;;;;2.53;2.33;;;;;17.90;95890.00;;;;5034237;28;20220;-57
2023/08/05 08:16:59;;;;;;;1.27;1.17;;;;;18.10;95892.00;;;;5034427;28;20217;-57
2023/08/05 08:19:26;;;;;;;0.67;0.67;;;;;18.40;95886.00;;;;5034225;28;20193;-57
2023/08/05 08:21:55;;;;;;;1.23;1.13;;;;;18.30;95886.00;;;;5034296;28;20197;-57
2023/08/05 08:24:22;;;;;;;0.83;0.83;;;;;18.30;95885.00;;;;5034238;28;20196;-57
2023/08/05 08:26:50;;;;;;;1.27;1.27;;;;;18.00;95874.00;;;;5033864;28;20217;-57
2023/08/05 08:29:17;;;;;;;3.10;2.63;;;;;18.10;95881.00;;;;5033884;28;20196;-57
2023/08/05 08:31:44;;;;;;;1.30;1.30;;;;;18.10;95872.00;;;;5034115;28;20264;-57
2023/08/05 08:34:12;;;;;;;1.23;1.23;;;;;18.10;95872.00;;;;5033929;28;20196;-57
2023/08/05 08:36:39;;;;;;;0.80;0.80;;;;;18.00;95864.00;;;;5033702;28;20213;-57
2023/08/05 08:39:08;;;;;;;0.87;0.87;;;;;17.80;95867.00;;;;5033993;28;20219;-57
2023/08/05 08:41:41;;;;;;;0.73;0.73;;;;;18.10;95861.00;;;;5034012;28;20593;-57
2023/08/05 08:44:09;;;;;;;1.07;1.07;;;;;18.30;95853.00;;;;5034229;28;20181;-57
2023/08/05 08:46:37;;;;;;;1.00;1.00;;;;;18.60;95858.00;;;;5033648;28;20216;-57
2023/08/05 08:49:04;;;;;;;0.60;0.60;;;;;18.60;95854.00;;;;5033535;28;20200;-57
2023/08/05 08:51:33;;;;;;;0.67;0.67;;;;;18.50;95864.00;;;;5034173;28;20677;-57
2023/08/05 08:54:03;;;;;;;0.53;0.53;;;;;18.40;95858.00;;;;5033866;28;20193;-57
2023/08/05 08:56:33;;;;;;;0.60;0.60;;;;;18.60;95844.00;;;;5033491;28;20684;-57
2023/08/05 08:59:00;;;;;;;0.70;0.70;;;;;18.80;95843.00;;;;5033219;28;20221;-57
2023/08/05 09:01:28;;;;;;;1.43;1.33;;;;;19.00;95846.00;;;;5033340;28;20598;-57
2023/08/05 09:03:57;;;;;;;0.70;0.70;;;;;18.80;95845.00;;;;5033317;28;20197;-57
2023/08/05 09:06:25;;;;;;;0.70;0.70;;;;;18.90;95847.00;;;;5032005;28;20220;-57
2023/08/05 09:08:53;;;;;;;6.70;0.80;;;;;19.20;95847.00;;;;5033993;28;20189;-57
2023/08/05 09:11:20;;;;;;;0.80;0.80;;;;;19.00;95845.00;;;;5033411;28;20208;-57
2023/08/05 09:13:50;;;;;;;0.90;0.90;;;;;19.30;95848.00;;;;5033294;28;20201;-57
2023/08/05 09:16:17;;;;;;;0.63;0.63;;;;;19.50;95838.00;;;;5033083;28;20213;-57
2023/08/05 09:18:45;;;;;;;0.80;0.80;;;;;19.40;95849.00;;;;5032906;28;20243;-57
2023/08/05 09:21:14;;;;;;;1.27;1.17;;;;;19.60;95839.00;;;;5033057;28;20725;-57
2023/08/05 09:23:48;;;;;;;1.20;1.10;;;;;19.60;95840.00;;;;5033104;28;20198;-57
2023/08/05 09:26:15;;;;;;;0.87;0.87;;;;;19.80;95837.00;;;;5033036;28;20228;-57
2023/08/05 09:28:42;;;;;;;0.70;0.70;;;;;20.20;95838.00;;;;5033240;28;20211;-57
2023/08/05 09:31:16;;;;;;;0.80;0.80;;;;;20.30;95847.00;;;;5033092;28;20652;-57
2023/08/05 09:33:44;;;;;;;0.70;0.70;;;;;20.20;95840.00;;;;5033362;28;20255;-57
2023/08/05 09:36:12;;;;;;;0.87;0.87;;;;;20.40;95832.00;;;;5033311;28;20245;-57
2023/08/05 09:38:40;;;;;;;1.17;1.07;;;;;20.70;95834.00;;;;5032965;28;20699;-57
2023/08/05 09:41:08;;;;;;;0.90;0.90;;;;;20.90;95830.00;;;;5031629;28;20570;-56
2023/08/05 09:43:40;;;;;;;0.50;0.50;;;;;21.20;95845.00;;;;5033395;28;20660;-57
2023/08/05 09:46:11;;;;;;;0.53;0.53;;;;;21.20;95847.00;;;;5033011;28;20223;-57
2023/08/05 09:48:43;;;;;;;1.73;1.33;;;;;20.90;95843.00;;;;5033246;28;20610;-57
2023/08/05 09:51:14;;;;;;;1.33;1.10;;;;;21.10;95855.00;;;;5032975;28;20177;-57
2023/08/05 09:53:42;;;;;;;0.80;0.73;;;;;20.90;95834.00;;;;5031787;28;20284;-57
2023/08/05 09:56:12;;;;;;;0.77;0.77;;;;;20.40;95830.00;;;;5032985;28;20209;-57
2023/08/05 09:58:40;;;;;;;0.77;0.77;;;;;20.40;95830.00;;;;5032504;28;20224;-56
2023/08/05 10:01:08;;;;;;;0.53;0.53;;;;;20.60;95823.00;;;;5032763;28;20200;-57
2023/08/05 10:03:38;;;;;;;1.10;1.03;;;;;20.70;95835.00;;;;5032788;28;20193;-63
2023/08/05 10:06:08;;;;;;;1.37;1.27;;;;;20.40;95821.00;;;;5033009;28;20609;-57
2023/08/05 10:08:40;;;;;;;1.20;1.10;;;;;20.40;95826.00;;;;5032735;28;20188;-57
2023/08/05 10:11:08;;;;;;;0.67;0.67;;;;;20.60;95808.00;;;;5033068;28;20235;-57
2023/08/05 10:13:40;;;;;;;0.40;0.40;;;;;21.10;95809.00;;;;5032693;28;20548;-59
2023/08/05 10:16:09;;;;;;;0.50;0.50;;;;;21.20;95810.00;;;;5032783;28;20212;-57
2023/08/05 10:18:39;;;;;;;0.90;0.90;;;;;21.00;95803.00;;;;5032597;28;20615;-57
2023/08/05 10:21:09;;;;;;;1.58;0.93;;;;;21.30;95804.00;;;;5032967;28;20193;-57
2023/08/05 10:23:37;;;;;;;0.77;0.77;;;;;21.40;95791.00;;;;5031300;28;20222;-57
2023/08/05 10:26:05;;;;;;;1.00;1.00;;;;;21.60;95789.00;;;;5035510;28;20216;-59
2023/08/05 10:28:45;;;;;;;0.57;0.57;;;;;21.80;95785.00;;;;5036274;28;20197;-58
2023/08/05 10:31:27;;;;;;;0.70;0.70;;;;;22.10;95788.00;;;;5036271;28;20189;-58
2023/08/05 10:34:17;;;;;;;1.35;1.27;;;;;22.10;95800.00;;;;5036685;28;20339;-58
2023/08/05 10:36:48;;;;;;;0.90;0.68;;;;;21.70;95801.00;;;;5036316;28;20209;-58
2023/08/05 10:39:41;;;;;;;0.90;0.90;;;;;21.40;95791.00;;;;5036611;28;20284;-58
2023/08/05 10:42:34;;;;;;;0.70;0.70;;;;;21.10;95799.00;;;;5036011;28;20197;-58
2023/08/05 10:45:04;;;;;;;0.70;0.70;;;;;20.90;95789.00;;;;5036579;28;20192;-58
2023/08/05 10:47:33;;;;;;;1.00;1.00;;;;;20.60;95799.00;;;;5035992;28;20224;-58
2023/08/05 10:50:01;;;;;;;0.50;0.50;;;;;20.30;95791.00;;;;5036116;28;20229;-58
2023/08/05 10:52:30;;;;;;;0.60;0.60;;;;;20.00;95793.00;;;;5035711;28;20380;-58
2023/08/05 10:54:58;;;;;;;0.70;0.70;;;;;19.90;95799.00;;;;5035798;28;20201;-58
2023/08/05 10:57:47;;;;;;;0.60;0.60;;;;;19.60;95799.00;;;;5035841;28;20224;-58
2023/08/05 11:00:23;;;;;;;0.50;0.50;;;;;19.40;95792.00;;;;5035560;28;20193;-58
2023/08/05 11:03:24;;;;;;;1.50;1.40;;;;;19.50;95783.00;;;;5035808;28;20580;-58
2023/08/05 11:05:52;;;;;;;0.87;0.87;;;;;19.60;95782.00;;;;5035720;28;20277;-58
2023/08/05 11:08:22;;;;;;;0.83;0.83;;;;;19.90;95773.00;;;;5035530;28;20554;-60
2023/08/05 11:10:50;;;;;;;0.70;0.70;;;;;20.00;95773.00;;;;5036039;28;20580;-59
2023/08/05 11:13:19;;;;;;;1.03;1.03;;;;;19.90;95773.00;;;;5035368;28;20660;-58
2023/08/05 11:16:10;;;;;;;0.93;0.93;;;;;19.80;95768.00;;;;5035288;28;20193;-59
2023/08/05 11:18:38;;;;;;;0.90;0.90;;;;;19.90;95766.00;;;;5035542;28;20207;-59
2023/08/05 11:21:07;;;;;;;0.63;0.63;;;;;20.00;95761.00;;;;5035118;28;20189;-59
2023/08/05 11:23:38;;;;;;;0.70;0.70;;;;;20.00;95762.00;;;;5034021;28;20200;-59
2023/08/05 11:26:05;;;;;;;0.60;0.60;;;;;20.10;95753.00;;;;5035358;28;20213;-59
2023/08/05 11:28:34;;;;;;;0.63;0.63;;;;;20.10;95756.00;;;;5035008;28;20193;-59
2023/08/05 11:31:02;;;;;;;1.03;0.90;;;;;20.40;95763.00;;;;5035323;28;20208;-59
2023/08/05 11:33:29;;;;;;;1.10;1.10;;;;;20.90;95751.00;;;;5035049;28;20207;-59
2023/08/05 11:35:57;;;;;;;0.70;0.70;;;;;20.60;95750.00;;;;5034465;28;20216;-59
2023/08/05 11:38:25;;;;;;;0.60;0.60;;;;;20.80;95740.00;;;;5034396;28;20224;-59
2023/08/05 11:40:56;;;;;;;0.80;0.80;;;;;21.10;95729.00;;;;5034703;28;20255;-59
2023/08/05 11:43:24;;;;;;;0.67;0.67;;;;;21.70;95733.00;;;;5034985;28;20200;-59
2023/08/05 11:45:55;;;;;;;0.45;0.45;;;;;22.10;95737.00;;;;5034779;28;20596;-59
2023/08/05 11:48:23;;;;;;;0.80;0.73;;;;;22.20;95717.00;;;;5034541;28;20253;-59
2023/08/05 11:50:52;;;;;;;0.80;0.80;;;;;22.70;95703.00;;;;5033065;28;20197;-58
2023/08/05 11:53:20;;;;;;;0.75;0.75;;;;;23.00;95704.00;;;;5034564;28;20199;-58
2023/08/05 11:55:47;;;;;;;15.85;1.17;;;;;23.20;95727.00;;;;5032976;28;20255;-58
2023/08/05 11:58:16;;;;;;;0.40;0.40;;;;;22.90;95732.00;;;;5034195;28;20668;-58
2023/08/05 12:00:45;;;;;;;0.50;0.50;;;;;22.50;95732.00;;;;5034364;28;20192;-58
2023/08/05 12:03:13;;;;;;;0.80;0.80;;;;;22.10;95725.00;;;;5034737;28;20197;-58
2023/08/05 12:05:42;;;;;;;0.65;0.65;;;;;22.00;95717.00;;;;5034331;28;20556;-60
2023/08/05 12:08:10;;;;;;;0.80;0.80;;;;;21.80;95715.00;;;;5034209;28;20246;-59
2023/08/05 12:10:38;;;;;;;0.70;0.70;;;;;21.70;95719.00;;;;5033785;28;20656;-59
2023/08/05 12:13:08;;;;;;;0.63;0.63;;;;;20.90;95729.00;;;;5034426;28;20204;-60
2023/08/05 12:15:37;;;;;;;0.80;0.80;;;;;20.60;95734.00;;;;5034173;28;20196;-57
2023/08/05 12:18:05;;;;;;;0.63;0.63;;;;;20.30;95732.00;;;;5034423;28;20192;-58
2023/08/05 12:20:34;;;;;;;0.87;0.87;;;;;19.90;95729.00;;;;5034607;28;20216;-57
2023/08/05 12:23:03;;;;;;;0.60;0.60;;;;;19.70;95719.00;;;;5033867;28;20551;-57
2023/08/05 12:25:31;;;;;;;0.70;0.70;;;;;19.90;95725.00;;;;5033929;28;20193;-57